Time;durP1;ratioP1;P1;durP2;ratioP2;P2;SDS_P1;SDS_P2;PMS_P1;PMS_P2;Temp;Humidity;BMP_temperature;BMP_pressure;BME280_temperature;BME280_humidity;BME280_pressure;Samples;Min_cycle;Max_cycle;Signal;HPM_P1;HPM_P2
2021/07/29 00:01:27;;;;;;;;;3.00;2.50;;;;;19.37;50.99;100649.97;5014105;28;45650;-82
2021/07/29 00:03:53;;;;;;;;;3.00;3.00;;;;;19.19;51.43;100636.81;5013940;28;46713;-79
2021/07/29 00:06:19;;;;;;;;;3.25;0.75;;;;;19.21;51.29;100640.16;5013469;28;46248;-80
2021/07/29 00:08:45;;;;;;;;;6.00;3.00;;;;;19.26;51.23;100656.44;5013493;28;45557;-79
2021/07/29 00:11:10;;;;;;;;;5.50;3.00;;;;;19.14;51.55;100641.78;5014101;28;45492;-79
2021/07/29 00:13:37;;;;;;;;;2.50;2.00;;;;;19.18;51.72;100651.91;5013740;28;46521;-76
2021/07/29 00:16:03;;;;;;;;;2.50;1.50;;;;;19.12;52.11;100641.94;5013759;28;45596;-80
2021/07/29 00:24:35;;;;;;;;;3.00;3.00;;;;;19.03;52.71;100660.69;5017125;28;45430;-78
2021/07/29 00:27:01;;;;;;;;;4.00;3.25;;;;;18.96;52.68;100649.88;5017227;28;45679;-78
2021/07/29 00:29:26;;;;;;;;;4.00;3.25;;;;;18.96;52.57;100646.38;5017400;28;45520;-78
2021/07/29 00:31:51;;;;;;;;;4.00;3.00;;;;;18.96;53.25;100659.66;5016009;28;45603;-78
2021/07/29 00:34:17;;;;;;;;;4.00;3.00;;;;;18.90;52.83;100652.34;5016921;28;45680;-77
2021/07/29 00:36:42;;;;;;;;;1.25;1.00;;;;;18.91;53.77;100659.31;5017471;28;45993;-78
2021/07/29 00:39:07;;;;;;;;;4.50;3.50;;;;;18.77;53.48;100642.19;5017084;28;45838;-78
2021/07/29 00:41:33;;;;;;;;;2.75;2.50;;;;;18.89;53.46;100661.31;5018227;28;45802;-78
2021/07/29 00:44:04;;;;;;;;;3.50;3.00;;;;;18.85;53.35;100656.31;5025174;28;46256;-79
2021/07/29 00:46:33;;;;;;;;;4.75;3.00;;;;;18.83;54.13;100646.88;5024867;28;45921;-79
2021/07/29 00:49:00;;;;;;;;;4.00;4.00;;;;;18.81;53.43;100648.84;5024672;28;45794;-79
2021/07/29 00:54:50;;;;;;;;;4.00;3.00;;;;;18.77;53.47;100651.00;5020199;28;45596;-76
2021/07/29 00:57:16;;;;;;;;;3.00;2.75;;;;;18.76;53.47;100651.97;5023033;28;47276;-77
2021/07/29 00:59:41;;;;;;;;;5.75;4.00;;;;;18.76;53.87;100651.97;5023456;28;45752;-78
2021/07/29 01:02:07;;;;;;;;;3.00;3.00;;;;;18.74;54.18;100647.81;5023044;28;45660;-77
2021/07/29 01:04:33;;;;;;;;;4.50;3.50;;;;;18.71;54.17;100648.13;5017323;28;45816;-79
2021/07/29 01:06:58;;;;;;;;;4.75;3.75;;;;;18.61;54.08;100635.00;5016321;28;47175;-80
2021/07/29 01:09:23;;;;;;;;;3.00;3.00;;;;;18.67;54.03;100647.66;5016031;28;45792;-79
2021/07/29 01:11:49;;;;;;;;;4.00;2.25;;;;;18.67;54.35;100652.13;5016409;28;45512;-79
2021/07/29 01:14:15;;;;;;;;;2.50;2.50;;;;;18.65;54.60;100646.13;5016361;28;47546;-80
2021/07/29 01:16:41;;;;;;;;;3.00;3.00;;;;;18.50;54.97;100637.06;5016503;28;45617;-78
2021/07/29 01:19:08;;;;;;;;;4.50;4.00;;;;;18.37;54.48;100617.13;5016416;28;45605;-78
2021/07/29 01:24:56;;;;;;;;;3.00;3.00;;;;;18.44;55.51;100650.00;5015987;28;45477;-80
2021/07/29 01:27:21;;;;;;;;;4.00;3.00;;;;;18.46;54.99;100663.91;5016368;28;46020;-78
2021/07/29 01:29:47;;;;;;;;;3.75;3.00;;;;;18.43;55.71;100666.06;5016645;28;45615;-78
2021/07/29 01:32:13;;;;;;;;;3.75;3.00;;;;;18.40;55.17;100664.56;5017021;28;45551;-78
2021/07/29 01:34:39;;;;;;;;;5.00;4.00;;;;;18.34;56.04;100661.72;5016248;28;45722;-79
2021/07/29 01:37:04;;;;;;;;;3.75;3.75;;;;;18.35;55.76;100668.69;5016593;28;45877;-78
2021/07/29 01:39:29;;;;;;;;;3.25;3.00;;;;;18.31;55.76;100667.31;5018358;28;45616;-79
2021/07/29 01:41:55;;;;;;;;;2.00;2.00;;;;;18.20;56.48;100663.13;5016805;28;45565;-79
2021/07/29 01:44:21;;;;;;;;;3.00;3.00;;;;;18.21;56.31;100675.38;5016641;28;46229;-79
2021/07/29 01:46:46;;;;;;;;;2.50;2.50;;;;;18.18;56.54;100672.22;5018261;28;45632;-80
2021/07/29 01:49:11;;;;;;;;;2.50;2.50;;;;;18.06;57.04;100650.44;5019549;28;45333;-79
2021/07/29 01:54:59;;;;;;;;;4.25;3.00;;;;;18.00;56.56;100669.63;5021423;28;45685;-79
2021/07/29 01:57:25;;;;;;;;;2.00;2.00;;;;;17.90;57.08;100656.47;5020017;28;45962;-79
2021/07/29 01:59:50;;;;;;;;;1.75;1.75;;;;;17.84;57.27;100649.13;5017723;28;45568;-79
2021/07/29 02:02:16;;;;;;;;;5.00;4.00;;;;;17.94;57.33;100673.72;5017841;28;45516;-78
2021/07/29 02:04:41;;;;;;;;;4.00;3.75;;;;;17.87;57.30;100662.06;5017170;28;46340;-79
2021/07/29 02:07:06;;;;;;;;;3.75;3.00;;;;;17.91;57.44;100670.56;5016001;28;45630;-80
2021/07/29 02:09:32;;;;;;;;;4.00;3.50;;;;;17.91;57.12;100675.84;5015783;28;45631;-80
2021/07/29 02:11:59;;;;;;;;;3.75;3.75;;;;;17.86;57.59;100667.53;5015467;28;45653;-79
2021/07/29 02:14:25;;;;;;;;;3.50;3.00;;;;;17.87;57.64;100674.47;5015256;28;45529;-80
2021/07/29 02:16:50;;;;;;;;;3.00;3.00;;;;;17.85;58.24;100671.16;5016016;28;45529;-79
2021/07/29 02:19:16;;;;;;;;;3.75;3.00;;;;;17.78;57.52;100664.81;5017107;28;45555;-79
2021/07/29 02:25:07;;;;;;;;;3.00;3.00;;;;;17.80;57.91;100662.84;5014879;28;45520;-79
2021/07/29 02:27:33;;;;;;;;;3.00;3.00;;;;;17.74;58.31;100661.66;5015229;28;47016;-79
2021/07/29 02:29:59;;;;;;;;;4.25;4.00;;;;;17.75;58.01;100671.25;5016040;28;45635;-78
2021/07/29 02:32:25;;;;;;;;;4.25;3.25;;;;;17.72;58.14;100668.06;5018185;28;45677;-78
2021/07/29 02:40:57;;;;;;;;;4.25;3.75;;;;;17.69;58.41;100685.13;5021388;28;45594;-79
2021/07/29 02:43:22;;;;;;;;;4.00;3.00;;;;;17.69;58.29;100682.47;5019099;28;45518;-79
2021/07/29 02:45:47;;;;;;;;;4.00;3.25;;;;;17.69;58.43;100677.19;5018874;28;45522;-78
2021/07/29 02:48:13;;;;;;;;;5.00;3.50;;;;;17.64;58.17;100681.28;5018498;28;47075;-79
2021/07/29 02:50:38;;;;;;;;;3.50;2.25;;;;;17.69;58.88;100682.47;5015943;28;45620;-80
2021/07/29 02:53:04;;;;;;;;;2.75;2.75;;;;;17.67;58.50;100678.28;4997806;28;45604;-79
2021/07/29 02:55:29;;;;;;;;;4.00;3.00;;;;;17.67;58.55;100684.44;5015122;28;46401;-79
2021/07/29 02:57:55;;;;;;;;;2.25;2.25;;;;;17.68;58.33;100685.28;4997144;28;48252;-79
2021/07/29 03:00:20;;;;;;;;;4.75;4.75;;;;;17.66;58.89;100685.41;5014900;28;45564;-80
2021/07/29 03:02:45;;;;;;;;;2.00;2.00;;;;;17.63;58.53;100682.25;5015035;28;45654;-78
2021/07/29 03:05:11;;;;;;;;;3.00;3.00;;;;;17.60;58.26;100688.66;5014694;28;45697;-79
2021/07/29 03:07:36;;;;;;;;;3.25;3.00;;;;;17.67;59.00;100694.19;5014840;28;45638;-78
2021/07/29 03:10:02;;;;;;;;;3.00;3.00;;;;;17.66;58.40;100693.38;5014892;28;45698;-79
2021/07/29 03:12:30;;;;;;;;;3.50;3.50;;;;;17.60;59.09;100689.50;5015237;28;45590;-80
2021/07/29 03:14:56;;;;;;;;;5.00;3.00;;;;;17.58;59.23;100687.97;5014198;28;46453;-79
2021/07/29 03:17:21;;;;;;;;;3.00;3.00;;;;;17.34;59.07;100656.78;5014697;28;46729;-78
2021/07/29 03:19:46;;;;;;;;;2.75;2.75;;;;;17.53;58.83;100699.03;5014610;28;45590;-78
2021/07/29 03:25:34;;;;;;;;;3.50;3.25;;;;;17.43;59.74;100692.97;5014165;28;46073;-79
2021/07/29 03:27:59;;;;;;;;;3.00;3.00;;;;;17.36;60.44;100680.47;5014200;28;46281;-79
2021/07/29 03:30:25;;;;;;;;;4.25;3.75;;;;;17.33;60.11;100692.19;5014817;28;45524;-79
2021/07/29 03:32:50;;;;;;;;;3.00;3.00;;;;;17.30;60.08;100689.84;5014534;28;45497;-79
2021/07/29 03:35:16;;;;;;;;;4.50;3.00;;;;;17.30;60.50;100695.16;5014288;28;47421;-79
2021/07/29 03:41:10;;;;;;;;;5.00;4.00;;;;;17.20;61.12;100686.44;5014454;28;45597;-78
2021/07/29 03:43:36;;;;;;;;;3.00;3.00;;;;;17.10;60.81;100688.31;4996895;28;45643;-78
2021/07/29 03:46:01;;;;;;;;;4.50;3.75;;;;;17.10;61.07;100690.97;5014152;28;45875;-80
2021/07/29 03:48:26;;;;;;;;;2.50;2.50;;;;;17.12;61.59;100694.28;5014354;28;46592;-78
2021/07/29 03:50:52;;;;;;;;;3.00;3.00;;;;;17.02;61.24;100686.41;4996293;28;45966;-79
2021/07/29 03:53:17;;;;;;;;;3.00;3.00;;;;;17.06;61.61;100701.00;5014532;28;45584;-77
2021/07/29 03:55:44;;;;;;;;;3.75;2.75;;;;;17.02;61.81;100704.94;5016900;28;45700;-78
2021/07/29 03:58:10;;;;;;;;;3.75;3.00;;;;;16.89;61.76;100685.13;5017895;28;46610;-78
2021/07/29 04:00:35;;;;;;;;;5.00;5.00;;;;;17.00;62.00;100706.09;5017585;28;45464;-79
2021/07/29 04:03:01;;;;;;;;;3.50;3.00;;;;;16.91;61.29;100686.63;5017830;28;45628;-79
2021/07/29 04:05:26;;;;;;;;;4.25;3.00;;;;;16.82;61.77;100684.84;5017368;28;45613;-79
2021/07/29 04:11:54;;;;;;;;;5.00;4.00;;;;;16.91;62.33;100702.50;5013167;28;45832;-79
2021/07/29 04:14:19;;;;;;;;;4.25;3.50;;;;;16.90;62.00;100705.28;5017808;28;45473;-80
2021/07/29 04:16:44;;;;;;;;;5.00;3.50;;;;;16.86;62.10;100702.09;4999446;28;47452;-79
2021/07/29 04:19:10;;;;;;;;;3.00;3.00;;;;;16.85;62.24;100702.25;5017226;28;45587;-79
2021/07/29 04:21:35;;;;;;;;;3.00;3.00;;;;;16.87;62.39;100716.16;5017186;28;45954;-79
2021/07/29 04:24:00;;;;;;;;;4.00;4.00;;;;;16.85;62.23;100702.25;5017581;28;45521;-80
2021/07/29 04:26:26;;;;;;;;;3.00;3.00;;;;;16.83;62.18;100702.41;5017091;28;46258;-79
2021/07/29 04:28:51;;;;;;;;;3.75;3.75;;;;;16.77;62.69;100695.06;5017480;28;45591;-79
2021/07/29 04:31:17;;;;;;;;;4.00;2.25;;;;;16.84;62.78;100704.09;5017426;28;45586;-79
2021/07/29 04:33:42;;;;;;;;;3.50;3.25;;;;;16.78;62.72;100694.91;5017670;28;45516;-79
2021/07/29 04:36:08;;;;;;;;;3.25;2.75;;;;;16.82;63.01;100719.25;5017196;28;45500;-80
2021/07/29 04:38:34;;;;;;;;;2.25;2.25;;;;;16.82;62.75;100702.53;5017404;28;45729;-78
2021/07/29 04:41:06;;;;;;;;;4.00;3.00;;;;;16.78;62.95;100705.50;5017338;28;45627;-80
2021/07/29 04:43:31;;;;;;;;;5.25;3.75;;;;;16.82;62.68;100710.47;5017463;28;45558;-79
2021/07/29 04:46:01;;;;;;;;;4.00;3.50;;;;;16.78;63.11;100709.97;5024068;28;46435;-80
2021/07/29 04:48:27;;;;;;;;;3.00;3.00;;;;;16.79;63.36;100719.53;5024934;28;45731;-80
2021/07/29 04:50:52;;;;;;;;;4.00;3.00;;;;;16.78;63.33;100716.09;5024591;28;45802;-79
2021/07/29 04:56:39;;;;;;;;;5.75;3.00;;;;;16.72;63.31;100710.53;5021995;28;45599;-78
2021/07/29 04:59:04;;;;;;;;;2.75;2.25;;;;;16.74;63.40;100713.84;5017552;28;46004;-80
2021/07/29 05:01:30;;;;;;;;;3.00;3.00;;;;;16.67;63.43;100710.16;5017053;28;45662;-79
2021/07/29 05:03:55;;;;;;;;;2.25;2.00;;;;;16.73;63.36;100717.50;5016985;28;45630;-79
2021/07/29 05:06:21;;;;;;;;;3.50;3.25;;;;;16.71;63.61;100715.00;5015836;28;45614;-78
2021/07/29 05:08:46;;;;;;;;;4.50;3.00;;;;;16.72;63.53;100719.31;5016541;28;46451;-78
2021/07/29 05:11:12;;;;;;;;;3.75;2.25;;;;;16.73;63.41;100718.31;5016260;28;46703;-77
2021/07/29 05:13:37;;;;;;;;;3.50;3.00;;;;;16.65;63.55;100705.00;5016988;28;45799;-79
2021/07/29 05:16:07;;;;;;;;;4.00;3.25;;;;;16.74;63.26;100721.78;5016449;28;46285;-78
2021/07/29 05:18:34;;;;;;;;;3.75;3.25;;;;;16.73;63.81;100715.66;5016606;28;46521;-78
2021/07/29 05:21:02;;;;;;;;;3.50;3.00;;;;;16.60;63.67;100698.47;5016439;28;45938;-79
2021/07/29 05:26:49;;;;;;;;;3.50;3.50;;;;;16.69;63.66;100713.47;5016030;28;45623;-80
2021/07/29 05:29:14;;;;;;;;;7.50;7.00;;;;;16.76;63.30;100723.31;5016275;28;45759;-79
2021/07/29 05:31:41;;;;;;;;;5.50;4.00;;;;;16.79;63.61;100728.31;5016365;28;45683;-79
2021/07/29 05:34:11;;;;;;;;;4.00;3.75;;;;;16.75;63.33;100721.66;5015845;28;45607;-79
2021/07/29 05:36:36;;;;;;;;;4.00;3.75;;;;;16.81;63.75;100735.28;5016172;28;46855;-78
2021/07/29 05:39:02;;;;;;;;;4.75;3.00;;;;;16.81;63.92;100728.16;5016073;28;46291;-79
2021/07/29 05:41:28;;;;;;;;;2.75;2.75;;;;;16.84;63.49;100733.19;5016176;28;45821;-79
2021/07/29 05:43:53;;;;;;;;;4.50;4.50;;;;;16.82;63.44;100729.84;5015900;28;45635;-79
2021/07/29 05:46:19;;;;;;;;;5.00;4.00;;;;;16.88;63.45;100741.66;5015872;28;46901;-78
2021/07/29 05:48:44;;;;;;;;;3.00;3.00;;;;;16.90;63.72;100739.69;4997544;28;47360;-78
2021/07/29 05:51:09;;;;;;;;;2.75;2.00;;;;;16.90;63.73;100737.03;4997403;28;45584;-78
2021/07/29 05:56:56;;;;;;;;;8.00;7.00;;;;;16.96;63.54;100744.41;5015226;28;45581;-78
2021/07/29 05:59:22;;;;;;;;;3.25;3.00;;;;;16.97;63.95;100741.59;5015397;28;45663;-78
2021/07/29 06:01:47;;;;;;;;;5.00;4.00;;;;;16.95;64.07;100737.47;5015172;28;45529;-78
2021/07/29 06:04:12;;;;;;;;;4.00;4.00;;;;;16.88;63.66;100708.09;5015781;28;45604;-79
2021/07/29 06:06:38;;;;;;;;;4.50;3.00;;;;;16.97;63.98;100727.53;5015183;28;46228;-78
2021/07/29 06:12:27;;;;;;;;;4.00;3.00;;;;;17.03;63.69;100743.66;5003881;28;45752;-79
2021/07/29 06:14:53;;;;;;;;;4.00;3.00;;;;;17.05;63.94;100736.44;5015084;28;45590;-79
2021/07/29 06:17:23;;;;;;;;;5.00;3.50;;;;;17.01;63.78;100735.03;5015269;28;46900;-78
2021/07/29 06:19:49;;;;;;;;;4.00;3.00;;;;;17.06;63.69;100742.53;5014657;28;46099;-76
2021/07/29 06:22:14;;;;;;;;;5.50;5.25;;;;;17.09;63.60;100745.75;5015352;28;45496;-77
2021/07/29 06:24:40;;;;;;;;;4.25;3.25;;;;;17.04;63.50;100737.41;5015554;28;45667;-77
2021/07/29 06:27:05;;;;;;;;;3.00;3.00;;;;;17.14;63.80;100754.06;5015166;28;46401;-79
2021/07/29 06:29:30;;;;;;;;;3.50;3.50;;;;;16.95;63.81;100717.09;5015253;28;45624;-79
2021/07/29 06:31:56;;;;;;;;;4.50;4.00;;;;;17.13;63.32;100749.75;5015177;28;45909;-79
2021/07/29 06:34:21;;;;;;;;;4.75;4.00;;;;;17.23;63.48;100767.38;5015012;28;45449;-79
2021/07/29 06:36:47;;;;;;;;;4.00;3.50;;;;;17.20;63.39;100758.78;5014892;28;46357;-79
2021/07/29 06:42:33;;;;;;;;;4.00;4.00;;;;;17.31;63.52;100768.34;5015137;28;45469;-78
2021/07/29 06:44:59;;;;;;;;;4.00;3.50;;;;;17.28;63.42;100750.06;5014942;28;45540;-77
2021/07/29 06:47:27;;;;;;;;;5.75;4.00;;;;;17.39;63.44;100764.91;5014576;28;46398;-79
2021/07/29 06:49:55;;;;;;;;;3.75;3.00;;;;;17.42;63.08;100768.13;5015665;28;45904;-79
2021/07/29 06:52:20;;;;;;;;;4.00;3.25;;;;;17.45;63.16;100766.97;5015066;28;45668;-77
2021/07/29 06:54:45;;;;;;;;;5.75;4.00;;;;;17.52;62.79;100773.34;5017868;28;45595;-78
2021/07/29 06:57:11;;;;;;;;;4.50;4.00;;;;;17.55;63.01;100775.69;5022602;28;45598;-77
2021/07/29 06:59:36;;;;;;;;;4.00;3.00;;;;;17.59;62.83;100782.38;5004799;28;45639;-78
2021/07/29 07:02:02;;;;;;;;;4.00;4.00;;;;;17.63;62.99;100783.78;5022041;28;45635;-75
2021/07/29 07:04:29;;;;;;;;;4.00;2.75;;;;;17.66;62.85;100790.56;5022512;28;45527;-75
2021/07/29 07:06:55;;;;;;;;;5.00;4.00;;;;;17.69;62.73;100790.28;5019631;28;46675;-75
2021/07/29 07:12:42;;;;;;;;;3.00;3.00;;;;;17.75;62.83;100787.03;5010902;28;45552;-79
2021/07/29 07:15:08;;;;;;;;;3.00;3.00;;;;;17.78;62.99;100787.56;5013035;28;45639;-77
2021/07/29 07:17:33;;;;;;;;;5.75;4.00;;;;;17.83;62.48;100790.59;5013787;28;46640;-75
2021/07/29 07:20:00;;;;;;;;;3.00;3.00;;;;;17.90;62.31;100802.28;5014062;28;45639;-77
2021/07/29 07:22:26;;;;;;;;;4.00;4.00;;;;;17.87;62.67;100789.28;4995646;28;45656;-75
2021/07/29 07:28:12;;;;;;;;;4.00;3.00;;;;;18.01;61.98;100802.03;5013473;28;45624;-78
2021/07/29 07:30:39;;;;;;;;;5.00;4.75;;;;;18.07;61.97;100802.41;5015774;28;45951;-78
2021/07/29 07:33:05;;;;;;;;;5.00;3.75;;;;;18.12;61.97;100800.97;5016726;28;45585;-77
2021/07/29 07:35:30;;;;;;;;;3.75;3.50;;;;;18.13;62.25;100807.13;5017258;28;45908;-79
2021/07/29 07:37:55;;;;;;;;;4.00;3.00;;;;;18.15;61.47;100811.25;5017095;28;46281;-77
2021/07/29 07:40:21;;;;;;;;;3.25;3.00;;;;;18.17;62.01;100805.81;5017464;28;45611;-77
2021/07/29 07:42:48;;;;;;;;;5.00;4.00;;;;;18.17;61.88;100797.84;5017092;28;45643;-77
2021/07/29 07:45:14;;;;;;;;;4.00;4.00;;;;;18.25;61.43;100801.41;5017231;28;45648;-77
2021/07/29 07:47:39;;;;;;;;;4.75;4.00;;;;;18.33;61.56;100805.94;5017191;28;46317;-77
2021/07/29 07:50:05;;;;;;;;;5.00;4.00;;;;;18.39;61.26;100811.47;5017297;28;46062;-75
2021/07/29 07:52:31;;;;;;;;;4.00;3.75;;;;;18.44;61.50;100803.88;5016649;28;45723;-77
2021/07/29 07:58:18;;;;;;;;;6.00;4.00;;;;;18.53;61.17;100796.78;5016754;28;45651;-77
2021/07/29 08:00:45;;;;;;;;;4.00;4.00;;;;;18.64;60.97;100799.22;5017066;28;45834;-78
2021/07/29 08:03:12;;;;;;;;;4.75;4.00;;;;;18.69;60.74;100788.97;4999466;28;45688;-77
2021/07/29 08:05:37;;;;;;;;;3.50;3.25;;;;;18.77;60.24;100781.06;5016686;28;45603;-76
2021/07/29 08:08:06;;;;;;;;;4.00;4.00;;;;;18.88;60.12;100792.41;5017086;28;45675;-76
2021/07/29 08:10:32;;;;;;;;;4.00;3.00;;;;;18.89;60.23;100783.47;5016930;28;46287;-76
2021/07/29 08:12:57;;;;;;;;;4.75;3.75;;;;;18.99;59.81;100800.09;5019048;28;45855;-76
2021/07/29 08:15:22;;;;;;;;;5.75;4.50;;;;;19.06;59.85;100795.78;5018598;28;45764;-75
2021/07/29 08:17:48;;;;;;;;;3.00;2.75;;;;;19.08;59.29;100799.97;5020193;28;46372;-79
2021/07/29 08:20:13;;;;;;;;;6.25;4.00;;;;;19.07;58.97;100794.81;5019515;28;46117;-76
2021/07/29 08:22:39;;;;;;;;;3.75;2.75;;;;;19.13;59.08;100800.31;4999382;28;45989;-77
2021/07/29 08:28:26;;;;;;;;;4.25;3.75;;;;;19.17;58.58;100780.41;5016710;28;45563;-77
2021/07/29 08:30:52;;;;;;;;;5.75;4.25;;;;;19.31;58.23;100784.28;5017132;28;46439;-76
2021/07/29 08:33:18;;;;;;;;;2.75;2.75;;;;;19.40;58.34;100787.78;5015620;28;45708;-78
2021/07/29 08:35:43;;;;;;;;;1.75;1.75;;;;;19.41;57.73;100789.47;5016342;28;45725;-78
2021/07/29 08:38:09;;;;;;;;;2.00;2.00;;;;;19.45;57.79;100783.69;5016100;28;46436;-78
2021/07/29 08:43:57;;;;;;;;;2.75;2.75;;;;;19.56;55.50;100788.72;5015919;28;45527;-77
2021/07/29 08:46:22;;;;;;;;;2.00;2.00;;;;;19.57;55.43;100802.84;5015338;28;45708;-75
2021/07/29 08:48:50;;;;;;;;;3.75;2.00;;;;;19.54;55.21;100780.06;5017230;28;46262;-76
2021/07/29 08:51:17;;;;;;;;;3.00;2.00;;;;;19.57;55.02;100793.03;5017436;28;46384;-74
2021/07/29 08:53:42;;;;;;;;;2.50;2.50;;;;;19.61;55.32;100794.38;5016655;28;45567;-76
2021/07/29 08:56:12;;;;;;;;;3.00;3.00;;;;;19.66;55.23;100796.53;4999060;28;45607;-76
2021/07/29 08:58:38;;;;;;;;;2.75;1.75;;;;;19.70;54.95;100797.91;5016940;28;46469;-77
2021/07/29 09:01:04;;;;;;;;;2.00;1.75;;;;;19.74;54.79;100801.06;5016737;28;46081;-76
2021/07/29 09:03:30;;;;;;;;;3.00;3.00;;;;;19.76;54.93;100788.44;5000108;28;45754;-75
2021/07/29 09:06:05;;;;;;;;;1.75;1.75;;;;;19.79;54.03;100796.91;5019467;28;45849;-75
2021/07/29 09:15:20;;;;;;;;;3.00;2.00;;;;;19.98;54.04;100788.59;5021920;28;45594;-75
2021/07/29 09:17:46;;;;;;;;;3.00;2.75;;;;;20.04;53.88;100789.78;5006104;28;45567;-75
2021/07/29 09:20:19;;;;;;;;;3.00;3.00;;;;;20.07;53.97;100786.78;5022541;28;46414;-74
2021/07/29 09:22:47;;;;;;;;;2.50;2.50;;;;;20.11;53.85;100788.13;5019367;28;47073;-73
2021/07/29 09:28:39;;;;;;;;;3.00;3.00;;;;;20.13;52.76;100782.63;5016170;28;45647;-77
2021/07/29 09:31:21;;;;;;;;;2.50;2.00;;;;;20.13;52.31;100777.31;5015468;28;45639;-79
2021/07/29 09:34:00;;;;;;;;;4.00;3.00;;;;;20.15;53.04;100778.81;5015650;28;46863;-79
2021/07/29 09:36:28;;;;;;;;;3.25;2.00;;;;;20.16;52.13;100788.44;5015223;28;45708;-76
2021/07/29 09:45:39;;;;;;;;;3.00;2.00;;;;;20.26;52.51;100780.28;5014906;28;45938;-76
2021/07/29 09:48:06;;;;;;;;;2.50;2.00;;;;;20.33;52.26;100781.31;5015163;28;45557;-77
2021/07/29 09:50:37;;;;;;;;;2.50;1.75;;;;;20.38;52.03;100777.16;5015077;28;45635;-77
2021/07/29 09:53:03;;;;;;;;;1.25;1.00;;;;;20.46;51.62;100774.47;5014534;28;47502;-78
2021/07/29 09:55:30;;;;;;;;;1.50;1.00;;;;;20.49;51.55;100766.16;5014757;28;46307;-77
2021/07/29 09:57:56;;;;;;;;;1.00;1.00;;;;;20.56;51.35;100773.47;5015267;28;45795;-77
2021/07/29 10:00:21;;;;;;;;;1.00;1.00;;;;;20.59;50.94;100771.31;5015423;28;45501;-76
2021/07/29 10:02:47;;;;;;;;;3.00;1.25;;;;;20.63;49.64;100777.94;5014966;28;47442;-78
2021/07/29 10:05:16;;;;;;;;;1.50;1.50;;;;;20.66;50.58;100774.94;5014874;28;47037;-77
2021/07/29 10:07:45;;;;;;;;;2.25;1.00;;;;;20.71;50.22;100769.13;5015665;28;45630;-79
2021/07/29 10:10:11;;;;;;;;;2.75;2.00;;;;;20.73;50.06;100775.13;5015395;28;45481;-80
2021/07/29 10:12:37;;;;;;;;;2.25;2.00;;;;;20.74;50.14;100764.25;5018911;28;46557;-78
2021/07/29 10:15:03;;;;;;;;;1.25;1.25;;;;;20.78;49.94;100764.78;4999844;28;46195;-77
2021/07/29 10:17:35;;;;;;;;;2.00;2.00;;;;;20.78;49.22;100762.13;5018465;28;45580;-79
2021/07/29 10:20:12;;;;;;;;;2.00;2.00;;;;;20.85;49.55;100766.56;5003114;28;45536;-79
2021/07/29 10:22:39;;;;;;;;;1.75;1.75;;;;;20.89;49.05;100754.56;5021087;28;46423;-78
2021/07/29 10:25:05;;;;;;;;;2.00;2.00;;;;;20.87;48.95;100753.91;5016837;28;46231;-79
2021/07/29 10:27:30;;;;;;;;;3.00;2.25;;;;;20.96;49.49;100749.38;5015847;28;45551;-79
2021/07/29 10:30:19;;;;;;;;;1.50;1.50;;;;;21.06;48.55;100763.31;5015955;28;45751;-79
2021/07/29 10:32:49;;;;;;;;;2.50;2.00;;;;;21.04;48.22;100748.53;5002924;28;46915;-80
2021/07/29 10:35:35;;;;;;;;;1.25;1.00;;;;;21.16;47.94;100755.16;5015258;28;47712;-79
2021/07/29 10:38:01;;;;;;;;;2.00;2.00;;;;;21.16;48.04;100742.66;5015665;28;45773;-79
2021/07/29 10:40:33;;;;;;;;;1.75;1.75;;;;;21.27;48.04;100742.25;5015266;28;45611;-79
2021/07/29 10:43:23;;;;;;;;;1.00;1.00;;;;;21.34;47.85;100753.91;5015283;28;46621;-80
2021/07/29 10:45:53;;;;;;;;;2.00;2.00;;;;;21.39;47.68;100747.19;5015112;28;45836;-78
2021/07/29 10:49:12;;;;;;;;;2.00;2.00;;;;;21.43;47.74;100754.66;5015234;28;45700;-79
2021/07/29 10:51:35;;;;;;;;;3.50;2.00;;;;;21.44;47.50;100742.16;5014068;28;45581;-79
2021/07/29 10:54:01;;;;;;;;;1.00;1.00;;;;;21.49;47.54;100748.63;5014967;28;46710;-82
2021/07/29 10:56:26;;;;;;;;;1.75;1.75;;;;;21.51;47.31;100746.63;5015126;28;45528;-80
2021/07/29 10:58:54;;;;;;;;;2.75;2.00;;;;;21.54;47.31;100756.94;5015881;28;45603;-86
2021/07/29 11:01:21;;;;;;;;;2.25;2.00;;;;;21.60;47.35;100761.56;5017646;28;45714;-87
2021/07/29 11:03:57;;;;;;;;;3.25;2.00;;;;;21.61;46.60;100749.91;4999414;28;47096;-77
2021/07/29 11:06:23;;;;;;;;;1.75;0.25;;;;;21.66;46.71;100749.34;5014664;28;45903;-77
2021/07/29 11:08:49;;;;;;;;;2.75;2.75;;;;;21.64;46.96;100740.72;5014873;28;45730;-77
2021/07/29 11:11:15;;;;;;;;;2.00;2.00;;;;;21.68;46.64;100742.03;5014980;28;45594;-77
2021/07/29 11:13:45;;;;;;;;;2.25;2.00;;;;;21.74;46.19;100744.81;5014174;28;46496;-76
2021/07/29 11:16:11;;;;;;;;;1.00;1.00;;;;;21.76;46.50;100753.44;5014891;28;46276;-76
2021/07/29 11:18:37;;;;;;;;;2.25;2.00;;;;;21.76;46.00;100748.13;5014733;28;45682;-78
2021/07/29 11:21:13;;;;;;;;;2.00;2.00;;;;;21.76;45.51;100750.78;5014553;28;45642;-77
2021/07/29 11:23:39;;;;;;;;;2.50;2.50;;;;;21.67;45.42;100743.84;5017219;28;45678;-76
2021/07/29 11:26:05;;;;;;;;;2.25;1.75;;;;;21.72;45.36;100740.66;5021965;28;46486;-76
2021/07/29 11:28:31;;;;;;;;;3.00;2.50;;;;;21.77;45.82;100740.94;5022546;28;45623;-76
2021/07/29 11:30:57;;;;;;;;;2.75;2.00;;;;;21.79;45.69;100736.28;5021446;28;45904;-78
2021/07/29 11:33:25;;;;;;;;;2.75;2.00;;;;;21.67;45.63;100711.03;5020529;28;46525;-77
2021/07/29 11:35:51;;;;;;;;;2.00;2.00;;;;;21.70;45.92;100706.16;5021239;28;45479;-76
2021/07/29 11:38:19;;;;;;;;;1.50;1.50;;;;;21.91;45.65;100734.84;5013758;28;45469;-76
2021/07/29 11:40:45;;;;;;;;;2.00;2.00;;;;;21.95;45.76;100730.84;5013950;28;45732;-76
2021/07/29 11:43:24;;;;;;;;;1.00;1.00;;;;;22.00;45.89;100730.28;5014020;28;46433;-78
2021/07/29 11:45:50;;;;;;;;;2.00;2.00;;;;;22.04;45.51;100737.75;5014483;28;46049;-77
2021/07/29 11:48:23;;;;;;;;;1.00;1.00;;;;;22.03;45.04;100738.75;5013798;28;45592;-77
2021/07/29 11:50:51;;;;;;;;;2.25;1.75;;;;;22.03;44.43;100725.41;5012916;28;45621;-75
2021/07/29 11:53:17;;;;;;;;;3.75;3.00;;;;;22.07;44.32;100741.91;5012654;28;46347;-79
2021/07/29 12:02:00;;;;;;;;;2.00;2.00;;;;;22.13;45.19;100719.84;5013898;28;45750;-78
2021/07/29 12:04:27;;;;;;;;;2.00;1.75;;;;;22.30;45.30;100731.16;5013844;28;46270;-78
2021/07/29 12:06:53;;;;;;;;;2.00;1.00;;;;;22.25;45.20;100710.38;5013247;28;45499;-78
2021/07/29 12:09:21;;;;;;;;;1.00;1.00;;;;;22.33;44.60;100709.47;5014062;28;45688;-79
2021/07/29 12:11:47;;;;;;;;;2.00;2.00;;;;;22.46;44.81;100717.66;5014902;28;45579;-79
2021/07/29 12:14:15;;;;;;;;;2.00;2.00;;;;;22.56;44.50;100718.25;5014514;28;46907;-79
2021/07/29 12:16:46;;;;;;;;;3.00;3.00;;;;;22.58;44.36;100725.03;5017142;28;45523;-77
2021/07/29 12:19:11;;;;;;;;;2.00;2.00;;;;;22.54;43.55;100710.41;5017346;28;45657;-77
2021/07/29 12:21:37;;;;;;;;;3.75;1.75;;;;;22.64;43.93;100722.63;5017603;28;45516;-78
2021/07/29 12:24:03;;;;;;;;;2.00;1.75;;;;;22.68;43.62;100723.91;5016806;28;46304;-77
2021/07/29 12:26:28;;;;;;;;;1.25;1.00;;;;;22.62;43.18;100701.44;5016697;28;45879;-77
2021/07/29 12:28:53;;;;;;;;;2.00;1.00;;;;;22.66;42.85;100720.63;5017443;28;45684;-77
2021/07/29 12:31:25;;;;;;;;;0.50;0.50;;;;;22.66;42.71;100712.63;5017845;28;45547;-81
2021/07/29 12:33:59;;;;;;;;;2.50;2.00;;;;;22.67;43.03;100715.09;4999262;28;48476;-77
2021/07/29 12:36:46;;;;;;;;;2.00;2.00;;;;;22.66;42.98;100709.94;5017840;28;46097;-78
2021/07/29 12:39:14;;;;;;;;;2.00;1.00;;;;;22.58;41.94;100698.31;5016941;28;45638;-78
2021/07/29 12:41:42;;;;;;;;;1.00;1.00;;;;;22.60;41.79;100703.50;5018334;28;45549;-78
2021/07/29 12:44:14;;;;;;;;;2.75;2.00;;;;;22.59;41.69;100704.50;5017223;28;45536;-78
2021/07/29 12:46:40;;;;;;;;;1.75;1.00;;;;;22.58;41.71;100702.84;5016926;28;46078;-78
2021/07/29 12:49:06;;;;;;;;;2.00;1.50;;;;;22.57;42.04;100687.81;5017305;28;45552;-78
2021/07/29 12:51:39;;;;;;;;;1.00;1.00;;;;;22.60;42.40;100711.50;5018642;28;45718;-77
2021/07/29 12:54:06;;;;;;;;;2.50;2.50;;;;;22.58;42.02;100702.84;5018394;28;45673;-80
2021/07/29 13:02:56;;;;;;;;;1.75;1.00;;;;;22.62;41.70;100689.97;5016260;28;45664;-78